sensor_id;sensor_type;location;lat;lon;timestamp;P1;durP1;ratioP1;P2;durP2;ratioP2
57319;SDS011;43158;51.026;18.190;2023-04-06T00:01:43;38.70;;;28.80;;
57319;SDS011;43158;51.026;18.190;2023-04-06T00:04:09;39.20;;;29.00;;
57319;SDS011;43158;51.026;18.190;2023-04-06T00:06:35;37.60;;;27.90;;
57319;SDS011;43158;51.026;18.190;2023-04-06T00:09:02;39.20;;;28.40;;
57319;SDS011;43158;51.026;18.190;2023-04-06T00:11:28;42.40;;;29.00;;
57319;SDS011;43158;51.026;18.190;2023-04-06T00:13:55;43.30;;;27.50;;
57319;SDS011;43158;51.026;18.190;2023-04-06T00:16:21;43.20;;;30.30;;
57319;SDS011;43158;51.026;18.190;2023-04-06T00:18:47;38.90;;;29.50;;
57319;SDS011;43158;51.026;18.190;2023-04-06T00:21:14;39.40;;;28.70;;
57319;SDS011;43158;51.026;18.190;2023-04-06T00:23:41;42.40;;;30.30;;
57319;SDS011;43158;51.026;18.190;2023-04-06T00:26:08;41.20;;;31.00;;
57319;SDS011;43158;51.026;18.190;2023-04-06T00:28:36;39.70;;;30.80;;
57319;SDS011;43158;51.026;18.190;2023-04-06T00:31:03;41.40;;;32.20;;
57319;SDS011;43158;51.026;18.190;2023-04-06T00:33:29;45.20;;;32.60;;
57319;SDS011;43158;51.026;18.190;2023-04-06T00:35:56;40.60;;;32.00;;
57319;SDS011;43158;51.026;18.190;2023-04-06T00:38:22;44.40;;;31.30;;
57319;SDS011;43158;51.026;18.190;2023-04-06T00:40:48;45.80;;;31.80;;
57319;SDS011;43158;51.026;18.190;2023-04-06T00:43:15;42.10;;;29.50;;
57319;SDS011;43158;51.026;18.190;2023-04-06T00:45:41;41.30;;;29.00;;
57319;SDS011;43158;51.026;18.190;2023-04-06T00:48:08;71.70;;;38.70;;
57319;SDS011;43158;51.026;18.190;2023-04-06T00:50:35;41.90;;;28.70;;
57319;SDS011;43158;51.026;18.190;2023-04-06T00:53:01;51.50;;;33.10;;
57319;SDS011;43158;51.026;18.190;2023-04-06T00:55:27;48.00;;;32.30;;
57319;SDS011;43158;51.026;18.190;2023-04-06T00:57:54;46.70;;;32.10;;
57319;SDS011;43158;51.026;18.190;2023-04-06T01:00:20;48.90;;;32.30;;
57319;SDS011;43158;51.026;18.190;2023-04-06T01:02:46;50.00;;;32.00;;
57319;SDS011;43158;51.026;18.190;2023-04-06T01:05:13;51.60;;;35.70;;
57319;SDS011;43158;51.026;18.190;2023-04-06T01:07:40;53.60;;;35.70;;
57319;SDS011;43158;51.026;18.190;2023-04-06T01:10:06;52.00;;;34.60;;
57319;SDS011;43158;51.026;18.190;2023-04-06T01:12:33;48.80;;;31.00;;
57319;SDS011;43158;51.026;18.190;2023-04-06T01:15:00;51.00;;;35.20;;
57319;SDS011;43158;51.026;18.190;2023-04-06T01:17:26;50.60;;;36.40;;
57319;SDS011;43158;51.026;18.190;2023-04-06T01:19:54;46.80;;;33.70;;
57319;SDS011;43158;51.026;18.190;2023-04-06T01:22:20;43.10;;;31.50;;
57319;SDS011;43158;51.026;18.190;2023-04-06T01:24:46;43.10;;;30.80;;
57319;SDS011;43158;51.026;18.190;2023-04-06T01:27:14;44.90;;;30.90;;
57319;SDS011;43158;51.026;18.190;2023-04-06T01:29:40;47.30;;;32.30;;
57319;SDS011;43158;51.026;18.190;2023-04-06T01:32:08;38.40;;;30.70;;
57319;SDS011;43158;51.026;18.190;2023-04-06T01:34:34;47.70;;;33.50;;
57319;SDS011;43158;51.026;18.190;2023-04-06T01:37:01;45.40;;;33.10;;
57319;SDS011;43158;51.026;18.190;2023-04-06T01:39:27;46.40;;;33.20;;
57319;SDS011;43158;51.026;18.190;2023-04-06T01:41:53;44.10;;;33.30;;
57319;SDS011;43158;51.026;18.190;2023-04-06T01:44:19;45.50;;;33.20;;
57319;SDS011;43158;51.026;18.190;2023-04-06T01:46:45;48.40;;;34.70;;
57319;SDS011;43158;51.026;18.190;2023-04-06T01:49:12;43.60;;;32.60;;
57319;SDS011;43158;51.026;18.190;2023-04-06T01:51:38;41.20;;;32.00;;
57319;SDS011;43158;51.026;18.190;2023-04-06T01:54:04;40.90;;;32.40;;
57319;SDS011;43158;51.026;18.190;2023-04-06T01:56:31;48.80;;;33.30;;
57319;SDS011;43158;51.026;18.190;2023-04-06T01:58:57;40.10;;;29.80;;
57319;SDS011;43158;51.026;18.190;2023-04-06T02:01:23;36.40;;;30.10;;
57319;SDS011;43158;51.026;18.190;2023-04-06T02:03:50;35.10;;;29.20;;
57319;SDS011;43158;51.026;18.190;2023-04-06T02:06:16;39.50;;;28.20;;
57319;SDS011;43158;51.026;18.190;2023-04-06T02:08:42;39.30;;;29.00;;
57319;SDS011;43158;51.026;18.190;2023-04-06T02:11:09;36.90;;;28.30;;
57319;SDS011;43158;51.026;18.190;2023-04-06T02:13:36;40.90;;;29.80;;
57319;SDS011;43158;51.026;18.190;2023-04-06T02:16:02;42.30;;;31.00;;
57319;SDS011;43158;51.026;18.190;2023-04-06T02:18:30;50.80;;;32.30;;
57319;SDS011;43158;51.026;18.190;2023-04-06T02:20:56;40.30;;;30.00;;
57319;SDS011;43158;51.026;18.190;2023-04-06T02:23:22;47.10;;;34.50;;
57319;SDS011;43158;51.026;18.190;2023-04-06T02:25:49;45.70;;;34.30;;
57319;SDS011;43158;51.026;18.190;2023-04-06T02:28:15;46.60;;;34.00;;
57319;SDS011;43158;51.026;18.190;2023-04-06T02:30:42;44.40;;;35.60;;
57319;SDS011;43158;51.026;18.190;2023-04-06T02:33:08;47.20;;;35.90;;
57319;SDS011;43158;51.026;18.190;2023-04-06T02:35:34;52.40;;;36.90;;
57319;SDS011;43158;51.026;18.190;2023-04-06T02:38:00;50.30;;;36.50;;
57319;SDS011;43158;51.026;18.190;2023-04-06T02:40:26;47.30;;;34.10;;
57319;SDS011;43158;51.026;18.190;2023-04-06T02:42:52;49.40;;;33.90;;
57319;SDS011;43158;51.026;18.190;2023-04-06T02:45:18;44.60;;;34.80;;
57319;SDS011;43158;51.026;18.190;2023-04-06T02:47:45;45.30;;;33.90;;
57319;SDS011;43158;51.026;18.190;2023-04-06T02:50:11;50.20;;;36.80;;
57319;SDS011;43158;51.026;18.190;2023-04-06T02:52:37;49.20;;;35.40;;
57319;SDS011;43158;51.026;18.190;2023-04-06T02:55:04;48.60;;;35.90;;
57319;SDS011;43158;51.026;18.190;2023-04-06T02:57:33;52.80;;;36.00;;
57319;SDS011;43158;51.026;18.190;2023-04-06T02:59:59;43.30;;;33.10;;
57319;SDS011;43158;51.026;18.190;2023-04-06T03:02:27;49.10;;;35.60;;
57319;SDS011;43158;51.026;18.190;2023-04-06T03:04:53;67.20;;;43.50;;
57319;SDS011;43158;51.026;18.190;2023-04-06T03:07:19;46.70;;;36.10;;
57319;SDS011;43158;51.026;18.190;2023-04-06T03:09:45;44.70;;;36.10;;
57319;SDS011;43158;51.026;18.190;2023-04-06T03:12:11;50.70;;;40.00;;
57319;SDS011;43158;51.026;18.190;2023-04-06T03:14:38;60.10;;;41.90;;
57319;SDS011;43158;51.026;18.190;2023-04-06T03:17:04;59.20;;;42.40;;
57319;SDS011;43158;51.026;18.190;2023-04-06T03:19:30;57.90;;;41.20;;
57319;SDS011;43158;51.026;18.190;2023-04-06T03:21:56;62.00;;;43.20;;
57319;SDS011;43158;51.026;18.190;2023-04-06T03:24:22;59.80;;;44.50;;
57319;SDS011;43158;51.026;18.190;2023-04-06T03:26:48;43.50;;;33.80;;
57319;SDS011;43158;51.026;18.190;2023-04-06T03:29:14;37.70;;;28.80;;
57319;SDS011;43158;51.026;18.190;2023-04-06T03:31:40;36.00;;;29.10;;
57319;SDS011;43158;51.026;18.190;2023-04-06T03:34:06;32.70;;;27.40;;
57319;SDS011;43158;51.026;18.190;2023-04-06T03:36:33;38.40;;;28.10;;
57319;SDS011;43158;51.026;18.190;2023-04-06T03:39:00;42.70;;;30.50;;
57319;SDS011;43158;51.026;18.190;2023-04-06T03:41:26;38.50;;;29.80;;
57319;SDS011;43158;51.026;18.190;2023-04-06T03:43:52;40.40;;;30.90;;
57319;SDS011;43158;51.026;18.190;2023-04-06T03:46:18;42.70;;;30.60;;
57319;SDS011;43158;51.026;18.190;2023-04-06T03:48:45;40.40;;;31.00;;
57319;SDS011;43158;51.026;18.190;2023-04-06T03:51:13;35.60;;;28.50;;
57319;SDS011;43158;51.026;18.190;2023-04-06T03:53:39;38.10;;;29.70;;
57319;SDS011;43158;51.026;18.190;2023-04-06T03:56:05;39.40;;;30.80;;
57319;SDS011;43158;51.026;18.190;2023-04-06T03:58:31;46.60;;;35.50;;
57319;SDS011;43158;51.026;18.190;2023-04-06T04:00:57;39.30;;;31.70;;
57319;SDS011;43158;51.026;18.190;2023-04-06T04:03:23;33.20;;;25.50;;
57319;SDS011;43158;51.026;18.190;2023-04-06T04:05:52;36.70;;;26.50;;
57319;SDS011;43158;51.026;18.190;2023-04-06T04:08:20;34.50;;;27.60;;
57319;SDS011;43158;51.026;18.190;2023-04-06T04:10:46;37.40;;;29.50;;
57319;SDS011;43158;51.026;18.190;2023-04-06T04:13:12;41.40;;;31.90;;
57319;SDS011;43158;51.026;18.190;2023-04-06T04:15:39;46.10;;;35.00;;
57319;SDS011;43158;51.026;18.190;2023-04-06T04:18:05;38.60;;;31.50;;
57319;SDS011;43158;51.026;18.190;2023-04-06T04:20:31;39.00;;;32.20;;
57319;SDS011;43158;51.026;18.190;2023-04-06T04:22:57;43.00;;;32.60;;
57319;SDS011;43158;51.026;18.190;2023-04-06T04:25:23;40.00;;;32.80;;
57319;SDS011;43158;51.026;18.190;2023-04-06T04:27:49;36.70;;;31.40;;
57319;SDS011;43158;51.026;18.190;2023-04-06T04:30:16;44.00;;;33.40;;
57319;SDS011;43158;51.026;18.190;2023-04-06T04:32:43;49.00;;;35.20;;
57319;SDS011;43158;51.026;18.190;2023-04-06T04:35:09;42.20;;;32.40;;
57319;SDS011;43158;51.026;18.190;2023-04-06T04:37:36;37.60;;;29.00;;
57319;SDS011;43158;51.026;18.190;2023-04-06T04:40:03;41.50;;;28.50;;
57319;SDS011;43158;51.026;18.190;2023-04-06T04:42:29;38.50;;;29.60;;
57319;SDS011;43158;51.026;18.190;2023-04-06T04:44:56;45.30;;;30.30;;
57319;SDS011;43158;51.026;18.190;2023-04-06T04:47:23;42.50;;;30.50;;
57319;SDS011;43158;51.026;18.190;2023-04-06T04:49:49;45.30;;;30.20;;
57319;SDS011;43158;51.026;18.190;2023-04-06T04:52:16;50.40;;;33.20;;
57319;SDS011;43158;51.026;18.190;2023-04-06T04:54:42;49.20;;;34.40;;
57319;SDS011;43158;51.026;18.190;2023-04-06T04:57:08;47.60;;;32.50;;
57319;SDS011;43158;51.026;18.190;2023-04-06T04:59:34;47.20;;;36.70;;
57319;SDS011;43158;51.026;18.190;2023-04-06T05:02:01;48.40;;;37.90;;
57319;SDS011;43158;51.026;18.190;2023-04-06T05:04:28;50.80;;;36.10;;
57319;SDS011;43158;51.026;18.190;2023-04-06T05:07:06;51.30;;;38.30;;
57319;SDS011;43158;51.026;18.190;2023-04-06T05:09:33;48.10;;;33.40;;
57319;SDS011;43158;51.026;18.190;2023-04-06T05:12:00;54.20;;;36.40;;
57319;SDS011;43158;51.026;18.190;2023-04-06T05:14:26;66.40;;;46.10;;
57319;SDS011;43158;51.026;18.190;2023-04-06T05:16:53;76.70;;;51.70;;
57319;SDS011;43158;51.026;18.190;2023-04-06T05:19:19;102.70;;;71.90;;
57319;SDS011;43158;51.026;18.190;2023-04-06T05:21:46;92.10;;;66.30;;
57319;SDS011;43158;51.026;18.190;2023-04-06T05:24:12;69.10;;;49.00;;
57319;SDS011;43158;51.026;18.190;2023-04-06T05:26:38;63.40;;;44.80;;
57319;SDS011;43158;51.026;18.190;2023-04-06T05:29:04;70.60;;;46.20;;
57319;SDS011;43158;51.026;18.190;2023-04-06T05:31:30;70.10;;;41.50;;
57319;SDS011;43158;51.026;18.190;2023-04-06T05:33:56;54.90;;;36.70;;
57319;SDS011;43158;51.026;18.190;2023-04-06T05:36:22;61.80;;;41.20;;
57319;SDS011;43158;51.026;18.190;2023-04-06T05:38:48;67.80;;;45.40;;
57319;SDS011;43158;51.026;18.190;2023-04-06T05:41:16;67.80;;;44.70;;
57319;SDS011;43158;51.026;18.190;2023-04-06T05:43:42;57.40;;;42.30;;
57319;SDS011;43158;51.026;18.190;2023-04-06T05:46:08;57.10;;;40.30;;
57319;SDS011;43158;51.026;18.190;2023-04-06T05:48:37;60.00;;;43.40;;
57319;SDS011;43158;51.026;18.190;2023-04-06T05:51:04;54.10;;;40.00;;
57319;SDS011;43158;51.026;18.190;2023-04-06T05:53:32;55.50;;;38.60;;
57319;SDS011;43158;51.026;18.190;2023-04-06T05:56:01;63.70;;;41.40;;
57319;SDS011;43158;51.026;18.190;2023-04-06T05:58:28;41.40;;;34.20;;
57319;SDS011;43158;51.026;18.190;2023-04-06T06:00:58;64.70;;;43.10;;
57319;SDS011;43158;51.026;18.190;2023-04-06T06:03:25;54.10;;;40.20;;
57319;SDS011;43158;51.026;18.190;2023-04-06T06:05:51;58.40;;;43.20;;
57319;SDS011;43158;51.026;18.190;2023-04-06T06:08:17;60.30;;;41.70;;
57319;SDS011;43158;51.026;18.190;2023-04-06T06:10:44;53.80;;;42.30;;
57319;SDS011;43158;51.026;18.190;2023-04-06T06:13:11;54.40;;;46.20;;
57319;SDS011;43158;51.026;18.190;2023-04-06T06:15:37;66.70;;;46.40;;
57319;SDS011;43158;51.026;18.190;2023-04-06T06:18:04;61.70;;;47.70;;
57319;SDS011;43158;51.026;18.190;2023-04-06T06:20:30;73.70;;;50.90;;
57319;SDS011;43158;51.026;18.190;2023-04-06T06:22:56;72.50;;;52.80;;
57319;SDS011;43158;51.026;18.190;2023-04-06T06:25:23;63.90;;;44.90;;
57319;SDS011;43158;51.026;18.190;2023-04-06T06:27:49;60.20;;;46.90;;
57319;SDS011;43158;51.026;18.190;2023-04-06T06:30:16;60.20;;;46.40;;
57319;SDS011;43158;51.026;18.190;2023-04-06T06:32:42;58.10;;;45.70;;
57319;SDS011;43158;51.026;18.190;2023-04-06T06:35:08;84.30;;;61.20;;
57319;SDS011;43158;51.026;18.190;2023-04-06T06:37:37;67.20;;;56.20;;
57319;SDS011;43158;51.026;18.190;2023-04-06T06:40:03;63.70;;;49.50;;
57319;SDS011;43158;51.026;18.190;2023-04-06T06:42:31;57.50;;;45.60;;
57319;SDS011;43158;51.026;18.190;2023-04-06T06:44:57;57.20;;;43.00;;
57319;SDS011;43158;51.026;18.190;2023-04-06T06:47:24;51.80;;;42.30;;
57319;SDS011;43158;51.026;18.190;2023-04-06T06:49:51;60.60;;;43.60;;
57319;SDS011;43158;51.026;18.190;2023-04-06T06:52:18;61.90;;;44.20;;
57319;SDS011;43158;51.026;18.190;2023-04-06T06:54:44;54.90;;;40.50;;
57319;SDS011;43158;51.026;18.190;2023-04-06T06:57:11;54.10;;;41.90;;
57319;SDS011;43158;51.026;18.190;2023-04-06T06:59:37;50.60;;;39.40;;
57319;SDS011;43158;51.026;18.190;2023-04-06T07:02:04;42.90;;;34.90;;
57319;SDS011;43158;51.026;18.190;2023-04-06T07:04:30;56.00;;;43.10;;
57319;SDS011;43158;51.026;18.190;2023-04-06T07:06:56;56.40;;;45.90;;
57319;SDS011;43158;51.026;18.190;2023-04-06T07:09:22;56.70;;;44.40;;
57319;SDS011;43158;51.026;18.190;2023-04-06T07:11:49;51.10;;;40.80;;
57319;SDS011;43158;51.026;18.190;2023-04-06T07:14:15;54.40;;;38.70;;
57319;SDS011;43158;51.026;18.190;2023-04-06T07:16:42;44.30;;;35.80;;
57319;SDS011;43158;51.026;18.190;2023-04-06T07:19:10;38.70;;;31.70;;
57319;SDS011;43158;51.026;18.190;2023-04-06T07:21:37;49.00;;;38.10;;
57319;SDS011;43158;51.026;18.190;2023-04-06T07:24:04;52.70;;;40.50;;
57319;SDS011;43158;51.026;18.190;2023-04-06T07:26:30;46.10;;;37.70;;
57319;SDS011;43158;51.026;18.190;2023-04-06T07:28:57;48.80;;;35.10;;
57319;SDS011;43158;51.026;18.190;2023-04-06T07:31:23;46.60;;;37.20;;
57319;SDS011;43158;51.026;18.190;2023-04-06T07:33:49;39.00;;;32.70;;
57319;SDS011;43158;51.026;18.190;2023-04-06T07:36:15;45.80;;;37.50;;
57319;SDS011;43158;51.026;18.190;2023-04-06T07:38:41;47.70;;;42.40;;
57319;SDS011;43158;51.026;18.190;2023-04-06T07:41:08;43.10;;;36.50;;
57319;SDS011;43158;51.026;18.190;2023-04-06T07:43:34;43.70;;;36.90;;
57319;SDS011;43158;51.026;18.190;2023-04-06T07:46:00;41.30;;;33.80;;
57319;SDS011;43158;51.026;18.190;2023-04-06T07:48:28;43.10;;;30.90;;
57319;SDS011;43158;51.026;18.190;2023-04-06T07:51:03;38.60;;;31.90;;
57319;SDS011;43158;51.026;18.190;2023-04-06T07:53:32;44.50;;;34.50;;
57319;SDS011;43158;51.026;18.190;2023-04-06T07:55:58;30.80;;;25.80;;
57319;SDS011;43158;51.026;18.190;2023-04-06T07:58:25;28.00;;;25.00;;
57319;SDS011;43158;51.026;18.190;2023-04-06T08:00:51;28.90;;;25.80;;
57319;SDS011;43158;51.026;18.190;2023-04-06T08:03:17;28.50;;;24.60;;
57319;SDS011;43158;51.026;18.190;2023-04-06T08:05:46;31.50;;;26.20;;
57319;SDS011;43158;51.026;18.190;2023-04-06T08:08:12;40.70;;;31.00;;
57319;SDS011;43158;51.026;18.190;2023-04-06T08:10:38;33.70;;;26.30;;
57319;SDS011;43158;51.026;18.190;2023-04-06T08:13:05;28.20;;;23.90;;
57319;SDS011;43158;51.026;18.190;2023-04-06T08:15:30;32.60;;;27.40;;
57319;SDS011;43158;51.026;18.190;2023-04-06T08:17:56;26.10;;;23.40;;
57319;SDS011;43158;51.026;18.190;2023-04-06T08:20:23;26.60;;;21.70;;
57319;SDS011;43158;51.026;18.190;2023-04-06T08:22:49;21.20;;;17.10;;
57319;SDS011;43158;51.026;18.190;2023-04-06T08:25:15;19.20;;;17.10;;
57319;SDS011;43158;51.026;18.190;2023-04-06T08:27:41;23.30;;;20.80;;
57319;SDS011;43158;51.026;18.190;2023-04-06T08:30:07;22.70;;;20.00;;
57319;SDS011;43158;51.026;18.190;2023-04-06T08:32:34;21.50;;;18.90;;
57319;SDS011;43158;51.026;18.190;2023-04-06T08:35:00;22.30;;;19.90;;
57319;SDS011;43158;51.026;18.190;2023-04-06T08:37:27;18.60;;;16.30;;
57319;SDS011;43158;51.026;18.190;2023-04-06T08:39:54;16.50;;;14.80;;
57319;SDS011;43158;51.026;18.190;2023-04-06T08:42:21;16.20;;;14.50;;
57319;SDS011;43158;51.026;18.190;2023-04-06T08:44:51;18.00;;;14.20;;
57319;SDS011;43158;51.026;18.190;2023-04-06T08:47:18;22.40;;;17.80;;
57319;SDS011;43158;51.026;18.190;2023-04-06T08:49:45;16.20;;;14.60;;
57319;SDS011;43158;51.026;18.190;2023-04-06T08:52:11;15.50;;;13.90;;
57319;SDS011;43158;51.026;18.190;2023-04-06T08:54:38;20.70;;;17.40;;
57319;SDS011;43158;51.026;18.190;2023-04-06T08:57:05;15.90;;;13.20;;
57319;SDS011;43158;51.026;18.190;2023-04-06T08:59:31;13.90;;;11.50;;
57319;SDS011;43158;51.026;18.190;2023-04-06T09:01:59;14.30;;;11.70;;
57319;SDS011;43158;51.026;18.190;2023-04-06T09:04:31;14.50;;;12.20;;
57319;SDS011;43158;51.026;18.190;2023-04-06T09:07:00;11.10;;;9.90;;
57319;SDS011;43158;51.026;18.190;2023-04-06T09:09:26;13.90;;;12.70;;
57319;SDS011;43158;51.026;18.190;2023-04-06T09:11:53;11.00;;;10.00;;
57319;SDS011;43158;51.026;18.190;2023-04-06T09:14:35;12.10;;;10.70;;
57319;SDS011;43158;51.026;18.190;2023-04-06T09:17:02;9.70;;;8.30;;
57319;SDS011;43158;51.026;18.190;2023-04-06T09:19:29;8.70;;;7.80;;
57319;SDS011;43158;51.026;18.190;2023-04-06T09:22:04;8.30;;;7.50;;
57319;SDS011;43158;51.026;18.190;2023-04-06T09:24:44;11.60;;;9.00;;
57319;SDS011;43158;51.026;18.190;2023-04-06T09:27:14;11.50;;;8.60;;
57319;SDS011;43158;51.026;18.190;2023-04-06T09:29:41;10.80;;;9.10;;
57319;SDS011;43158;51.026;18.190;2023-04-06T09:32:08;12.50;;;9.30;;
57319;SDS011;43158;51.026;18.190;2023-04-06T09:34:42;10.00;;;9.00;;
57319;SDS011;43158;51.026;18.190;2023-04-06T09:37:14;10.80;;;9.80;;
57319;SDS011;43158;51.026;18.190;2023-04-06T09:39:40;12.60;;;9.80;;
57319;SDS011;43158;51.026;18.190;2023-04-06T09:42:06;12.00;;;10.90;;
57319;SDS011;43158;51.026;18.190;2023-04-06T09:44:33;11.40;;;10.20;;
57319;SDS011;43158;51.026;18.190;2023-04-06T09:46:59;13.90;;;11.80;;
57319;SDS011;43158;51.026;18.190;2023-04-06T09:49:30;10.60;;;9.40;;
57319;SDS011;43158;51.026;18.190;2023-04-06T09:51:58;14.10;;;11.50;;
57319;SDS011;43158;51.026;18.190;2023-04-06T09:54:26;11.70;;;10.00;;
57319;SDS011;43158;51.026;18.190;2023-04-06T10:02:05;9.80;;;8.90;;
57319;SDS011;43158;51.026;18.190;2023-04-06T10:04:37;10.00;;;8.50;;
57319;SDS011;43158;51.026;18.190;2023-04-06T10:07:08;10.00;;;8.10;;
57319;SDS011;43158;51.026;18.190;2023-04-06T10:09:36;9.70;;;8.70;;
57319;SDS011;43158;51.026;18.190;2023-04-06T10:12:06;9.00;;;8.10;;
57319;SDS011;43158;51.026;18.190;2023-04-06T10:14:33;8.40;;;7.50;;
57319;SDS011;43158;51.026;18.190;2023-04-06T10:17:03;9.80;;;8.60;;
57319;SDS011;43158;51.026;18.190;2023-04-06T10:19:33;8.30;;;7.50;;
57319;SDS011;43158;51.026;18.190;2023-04-06T10:22:05;8.20;;;7.40;;
57319;SDS011;43158;51.026;18.190;2023-04-06T10:24:32;8.50;;;7.70;;
57319;SDS011;43158;51.026;18.190;2023-04-06T10:26:59;10.60;;;9.30;;
57319;SDS011;43158;51.026;18.190;2023-04-06T10:29:27;8.60;;;7.80;;
57319;SDS011;43158;51.026;18.190;2023-04-06T10:31:53;9.30;;;8.40;;
57319;SDS011;43158;51.026;18.190;2023-04-06T10:34:20;9.50;;;8.30;;
57319;SDS011;43158;51.026;18.190;2023-04-06T10:36:47;10.10;;;7.20;;
57319;SDS011;43158;51.026;18.190;2023-04-06T10:39:13;18.40;;;11.70;;
57319;SDS011;43158;51.026;18.190;2023-04-06T10:41:43;10.80;;;9.00;;
57319;SDS011;43158;51.026;18.190;2023-04-06T10:44:23;11.40;;;9.30;;
57319;SDS011;43158;51.026;18.190;2023-04-06T10:46:56;11.30;;;9.40;;
57319;SDS011;43158;51.026;18.190;2023-04-06T10:49:26;9.90;;;8.90;;
57319;SDS011;43158;51.026;18.190;2023-04-06T10:51:55;13.50;;;8.60;;
57319;SDS011;43158;51.026;18.190;2023-04-06T10:54:23;9.20;;;7.40;;
57319;SDS011;43158;51.026;18.190;2023-04-06T10:56:50;8.20;;;7.10;;
57319;SDS011;43158;51.026;18.190;2023-04-06T10:59:20;10.30;;;8.80;;
57319;SDS011;43158;51.026;18.190;2023-04-06T11:01:47;8.40;;;7.60;;
57319;SDS011;43158;51.026;18.190;2023-04-06T11:04:15;11.40;;;7.80;;
57319;SDS011;43158;51.026;18.190;2023-04-06T11:06:46;9.50;;;7.90;;
57319;SDS011;43158;51.026;18.190;2023-04-06T11:09:25;9.00;;;6.50;;
57319;SDS011;43158;51.026;18.190;2023-04-06T11:11:52;7.30;;;6.60;;
57319;SDS011;43158;51.026;18.190;2023-04-06T11:14:19;8.10;;;6.90;;
57319;SDS011;43158;51.026;18.190;2023-04-06T11:16:46;7.80;;;7.00;;
57319;SDS011;43158;51.026;18.190;2023-04-06T11:19:16;7.80;;;7.10;;
57319;SDS011;43158;51.026;18.190;2023-04-06T11:21:44;10.90;;;8.00;;
57319;SDS011;43158;51.026;18.190;2023-04-06T11:24:17;11.00;;;7.70;;
57319;SDS011;43158;51.026;18.190;2023-04-06T11:26:52;11.00;;;8.90;;
57319;SDS011;43158;51.026;18.190;2023-04-06T11:31:50;19.10;;;15.70;;
57319;SDS011;43158;51.026;18.190;2023-04-06T11:34:17;12.50;;;10.20;;
57319;SDS011;43158;51.026;18.190;2023-04-06T11:36:45;8.90;;;7.10;;
57319;SDS011;43158;51.026;18.190;2023-04-06T11:39:13;9.00;;;8.10;;
57319;SDS011;43158;51.026;18.190;2023-04-06T11:41:47;8.20;;;7.20;;
57319;SDS011;43158;51.026;18.190;2023-04-06T11:44:14;18.50;;;14.60;;
57319;SDS011;43158;51.026;18.190;2023-04-06T11:46:50;7.90;;;7.10;;
57319;SDS011;43158;51.026;18.190;2023-04-06T11:49:17;8.10;;;7.30;;
57319;SDS011;43158;51.026;18.190;2023-04-06T11:51:45;19.00;;;14.80;;
57319;SDS011;43158;51.026;18.190;2023-04-06T11:54:12;24.60;;;18.10;;
57319;SDS011;43158;51.026;18.190;2023-04-06T11:56:38;11.60;;;9.40;;
57319;SDS011;43158;51.026;18.190;2023-04-06T11:59:04;12.70;;;9.50;;
57319;SDS011;43158;51.026;18.190;2023-04-06T12:01:30;28.90;;;22.30;;
57319;SDS011;43158;51.026;18.190;2023-04-06T12:03:58;17.80;;;14.10;;
57319;SDS011;43158;51.026;18.190;2023-04-06T12:06:24;11.40;;;10.30;;
57319;SDS011;43158;51.026;18.190;2023-04-06T12:08:51;14.00;;;11.80;;
57319;SDS011;43158;51.026;18.190;2023-04-06T12:11:17;15.80;;;13.70;;
57319;SDS011;43158;51.026;18.190;2023-04-06T12:13:45;26.60;;;21.30;;
57319;SDS011;43158;51.026;18.190;2023-04-06T12:16:12;31.90;;;26.10;;
57319;SDS011;43158;51.026;18.190;2023-04-06T12:18:38;20.00;;;17.40;;
57319;SDS011;43158;51.026;18.190;2023-04-06T12:21:05;10.90;;;9.00;;
57319;SDS011;43158;51.026;18.190;2023-04-06T12:23:31;11.30;;;10.20;;
57319;SDS011;43158;51.026;18.190;2023-04-06T12:25:57;12.80;;;11.50;;
57319;SDS011;43158;51.026;18.190;2023-04-06T12:28:24;12.20;;;10.90;;
57319;SDS011;43158;51.026;18.190;2023-04-06T12:30:52;11.00;;;9.70;;
57319;SDS011;43158;51.026;18.190;2023-04-06T12:33:20;12.40;;;11.20;;
57319;SDS011;43158;51.026;18.190;2023-04-06T12:35:46;12.70;;;11.40;;
57319;SDS011;43158;51.026;18.190;2023-04-06T12:38:13;12.80;;;11.60;;
57319;SDS011;43158;51.026;18.190;2023-04-06T12:40:39;13.00;;;11.70;;
57319;SDS011;43158;51.026;18.190;2023-04-06T12:43:06;12.00;;;9.60;;
57319;SDS011;43158;51.026;18.190;2023-04-06T12:45:32;10.70;;;9.60;;
57319;SDS011;43158;51.026;18.190;2023-04-06T12:47:59;11.00;;;8.50;;
57319;SDS011;43158;51.026;18.190;2023-04-06T12:50:25;11.80;;;9.00;;
57319;SDS011;43158;51.026;18.190;2023-04-06T12:52:51;11.90;;;10.60;;
57319;SDS011;43158;51.026;18.190;2023-04-06T12:55:18;9.50;;;8.60;;
57319;SDS011;43158;51.026;18.190;2023-04-06T12:57:44;11.40;;;9.10;;
57319;SDS011;43158;51.026;18.190;2023-04-06T13:00:11;13.20;;;11.80;;
57319;SDS011;43158;51.026;18.190;2023-04-06T13:02:38;13.80;;;12.50;;
57319;SDS011;43158;51.026;18.190;2023-04-06T13:05:05;18.70;;;17.20;;
57319;SDS011;43158;51.026;18.190;2023-04-06T13:07:31;16.90;;;9.90;;
57319;SDS011;43158;51.026;18.190;2023-04-06T13:09:58;8.60;;;7.60;;
57319;SDS011;43158;51.026;18.190;2023-04-06T13:12:24;11.10;;;10.00;;
57319;SDS011;43158;51.026;18.190;2023-04-06T13:14:51;11.10;;;9.50;;
57319;SDS011;43158;51.026;18.190;2023-04-06T13:17:18;10.30;;;9.10;;
57319;SDS011;43158;51.026;18.190;2023-04-06T13:19:48;12.00;;;10.80;;
57319;SDS011;43158;51.026;18.190;2023-04-06T13:22:14;10.40;;;9.20;;
57319;SDS011;43158;51.026;18.190;2023-04-06T13:24:41;11.50;;;10.20;;
57319;SDS011;43158;51.026;18.190;2023-04-06T13:27:08;13.40;;;12.10;;
57319;SDS011;43158;51.026;18.190;2023-04-06T13:29:34;14.60;;;10.80;;
57319;SDS011;43158;51.026;18.190;2023-04-06T13:32:01;13.80;;;12.40;;
57319;SDS011;43158;51.026;18.190;2023-04-06T13:34:27;14.90;;;12.80;;
57319;SDS011;43158;51.026;18.190;2023-04-06T13:36:54;12.00;;;10.10;;
57319;SDS011;43158;51.026;18.190;2023-04-06T13:39:20;16.50;;;12.00;;
57319;SDS011;43158;51.026;18.190;2023-04-06T13:41:47;13.50;;;10.50;;
57319;SDS011;43158;51.026;18.190;2023-04-06T13:44:13;22.70;;;13.90;;
57319;SDS011;43158;51.026;18.190;2023-04-06T13:46:39;16.10;;;11.10;;
57319;SDS011;43158;51.026;18.190;2023-04-06T13:49:06;30.00;;;20.70;;
57319;SDS011;43158;51.026;18.190;2023-04-06T13:51:33;18.10;;;14.30;;
57319;SDS011;43158;51.026;18.190;2023-04-06T13:53:59;32.50;;;22.10;;
57319;SDS011;43158;51.026;18.190;2023-04-06T13:56:26;18.40;;;15.40;;
57319;SDS011;43158;51.026;18.190;2023-04-06T13:58:56;20.30;;;16.50;;
57319;SDS011;43158;51.026;18.190;2023-04-06T14:01:22;15.70;;;13.70;;
57319;SDS011;43158;51.026;18.190;2023-04-06T14:03:50;15.20;;;13.60;;
57319;SDS011;43158;51.026;18.190;2023-04-06T14:06:16;24.50;;;20.20;;
57319;SDS011;43158;51.026;18.190;2023-04-06T14:08:42;23.00;;;18.10;;
57319;SDS011;43158;51.026;18.190;2023-04-06T14:11:12;22.00;;;19.40;;
57319;SDS011;43158;51.026;18.190;2023-04-06T14:13:39;32.20;;;26.40;;
57319;SDS011;43158;51.026;18.190;2023-04-06T14:16:06;47.60;;;37.10;;
57319;SDS011;43158;51.026;18.190;2023-04-06T14:18:33;16.90;;;15.00;;
57319;SDS011;43158;51.026;18.190;2023-04-06T14:20:59;22.70;;;17.80;;